Canso, Canada
Current Conditions -  °F | °C
As of 4:00 AM on Saturday 01 Nov 2014 (Local Time) from CYPD Reporting Station
Overcast Overcast  
Wind Chill: 34°   Ceiling: 15000
Heat Index: 39°   Visibility: 9mi
Dew Point: 34°   Wind: 7mph
Humidity: 81%   Direction: 40°NE
Pressure: 30.09"   Gusts: NA
Location:  45.34°N, 61°W
Report Text: CYPD 010700Z AUTO 04006KT 9SM OVC150 04/01 A3009 RMK PRESFR SLP193
Loading
Personal Weather Stations






























Interactive Weather Map New forecast layout! Learn more

10-Day Weather Forecast

Advertisements
Track Severe Weather on mobile